ALTO2: Altus Lake, OK

Data processed at Thu May 23 2019 23:50


All information presented herein is the property of the government of the United States of America and may be revised or deleted at any time without prior notice.
Dissemination of this information without the expressed written consent of the Public Affairs Office, Tulsa District U.S. Army Corps of Engineers is strictly prohibited.
These data are gathered electronically and, as presented, have not undergone any form of quality control. These data are not guaranteed to be valid or correct.
Go to home page.
Go to station list.
Go to home page.

Upstream stations:

Downstream station:
Previous Day
Next Day
Current Day
    
SHEF ID:       ALTO2     Altus Lake
STATION TYPE:  Reservoir
Flood Pool:  Bottom =  1559.00, Top =  1562.00

               PRECIP  RIV-FLOW ELEVATION   STORAGE    INFLOW   RELEASE   VOLTAGE  BAT-LOAD
                   in       cfs        ft     ac-ft       cfs       cfs      volt      volt
              Ccp-Rev   Ccp-Rev   Ccp-Rev   Ccp-Rev  Rev-Regi  Rev-Regi   Ccp-Rev   Ccp-Rev
(US/Central)
05/23 00:00      0.40      ----   1559.08    129428      3525      2367     12.25      ----
05/23 01:00      0.03      ----   1559.11    129619      3654      2373     12.25      ----
05/23 02:00      0.00      ----   1559.07    129364      2891      2364     12.17      ----
05/23 03:00      0.00      ----   1559.11    129619      2285      2373     12.17      ----
05/23 04:00      0.00      ----   1559.10    129555      2114      2371     12.17      ----
05/23 05:00      0.00      ----   1559.07    129364      2420      2364     12.17      ----
05/23 06:00      0.00      ----   1559.09    129492      1533      2369     12.17      ----
05/23 07:00      0.00      ----   1559.08    129428      1679      2367     12.09      ----
05/23 08:00      0.00      ----   1559.06    129301      1973      2362     12.17      ----
05/23 09:00      0.00      ----   1559.06    129301      1223      2362     12.57      ----
05/23 10:00      0.00      ----   1559.05    129237      1676      2360     12.81      ----
05/23 11:00      0.00      ----   1559.01    128983      1827      2351     12.97      ----
05/23 12:00      0.00      ----   1559.03    129110      1665      2356     12.57      ----
05/23 13:00      0.00      ----   1559.02    129046      1935      2353     12.57      ----
05/23 14:00      0.00      ----   1559.01    128983      2020      2351     12.57      ----
05/23 15:00      0.00      ----   1559.02    129046      1347      2353     12.57      ----
05/23 16:00      0.00      ----   1558.97    128735      1060      2345     12.57      ----
05/23 17:00      0.00      ----   1558.97    128735       927      2345     12.57      ----
05/23 18:00      0.00      ----   1558.94    128552       514      2342     12.57      ----
05/23 19:00      0.00      ----   1558.92    128429       729      2339     12.49      ----
05/23 20:00      0.00      ----   1558.90    128307       643      2337     12.41      ----
05/23 21:00      0.00      ----   1558.89    128246      1061      2336     12.33      ----
05/23 22:00      0.00      ----   1558.85    128001       903      2331     12.25      ----
05/23 23:00      0.00      ----   1558.85    128001      1621      2331     12.25      ----